sensor_id;sensor_type;location;lat;lon;timestamp;temperature;humidity
43320;DHT22;28914;48.722;9.332;2023-07-28T00:00:00;19.80;86.10
43320;DHT22;28914;48.722;9.332;2023-07-28T00:05:19;19.70;86.10
43320;DHT22;28914;48.722;9.332;2023-07-28T00:10:41;19.60;86.10
43320;DHT22;28914;48.722;9.332;2023-07-28T00:16:01;19.50;86.30
43320;DHT22;28914;48.722;9.332;2023-07-28T00:21:20;19.40;86.30
43320;DHT22;28914;48.722;9.332;2023-07-28T00:26:40;19.40;86.30
43320;DHT22;28914;48.722;9.332;2023-07-28T00:31:59;19.30;86.50
43320;DHT22;28914;48.722;9.332;2023-07-28T00:37:18;19.20;86.70
43320;DHT22;28914;48.722;9.332;2023-07-28T00:42:37;19.20;87.10
43320;DHT22;28914;48.722;9.332;2023-07-28T00:47:56;19.20;87.20
43320;DHT22;28914;48.722;9.332;2023-07-28T00:53:16;19.10;87.20
43320;DHT22;28914;48.722;9.332;2023-07-28T00:58:36;19.10;87.80
43320;DHT22;28914;48.722;9.332;2023-07-28T01:03:55;19.20;88.10
43320;DHT22;28914;48.722;9.332;2023-07-28T01:09:18;19.20;88.20
43320;DHT22;28914;48.722;9.332;2023-07-28T01:14:37;19.20;88.10
43320;DHT22;28914;48.722;9.332;2023-07-28T01:19:56;19.20;87.80
43320;DHT22;28914;48.722;9.332;2023-07-28T01:30:51;19.10;88.20
43320;DHT22;28914;48.722;9.332;2023-07-28T01:36:10;19.00;87.70
43320;DHT22;28914;48.722;9.332;2023-07-28T01:41:30;18.90;87.60
43320;DHT22;28914;48.722;9.332;2023-07-28T01:46:49;18.90;87.70
43320;DHT22;28914;48.722;9.332;2023-07-28T01:52:08;18.80;87.90
43320;DHT22;28914;48.722;9.332;2023-07-28T01:57:27;18.70;88.10
43320;DHT22;28914;48.722;9.332;2023-07-28T02:02:48;18.60;88.30
43320;DHT22;28914;48.722;9.332;2023-07-28T02:08:07;18.60;88.40
43320;DHT22;28914;48.722;9.332;2023-07-28T02:13:26;18.50;88.40
43320;DHT22;28914;48.722;9.332;2023-07-28T02:18:45;18.50;88.30
43320;DHT22;28914;48.722;9.332;2023-07-28T02:24:05;18.40;88.40
43320;DHT22;28914;48.722;9.332;2023-07-28T02:29:24;18.30;88.60
43320;DHT22;28914;48.722;9.332;2023-07-28T02:34:43;18.30;88.70
43320;DHT22;28914;48.722;9.332;2023-07-28T02:40:03;18.20;88.90
43320;DHT22;28914;48.722;9.332;2023-07-28T02:45:22;18.20;89.20
43320;DHT22;28914;48.722;9.332;2023-07-28T02:50:45;18.20;89.30
43320;DHT22;28914;48.722;9.332;2023-07-28T02:56:05;18.20;89.50
43320;DHT22;28914;48.722;9.332;2023-07-28T03:01:24;18.20;89.50
43320;DHT22;28914;48.722;9.332;2023-07-28T03:06:43;18.20;89.60
43320;DHT22;28914;48.722;9.332;2023-07-28T03:12:03;18.20;89.60
43320;DHT22;28914;48.722;9.332;2023-07-28T03:17:22;18.20;89.80
43320;DHT22;28914;48.722;9.332;2023-07-28T03:22:41;18.20;90.00
43320;DHT22;28914;48.722;9.332;2023-07-28T03:28:00;18.20;90.00
43320;DHT22;28914;48.722;9.332;2023-07-28T03:33:19;18.20;90.20
43320;DHT22;28914;48.722;9.332;2023-07-28T03:38:38;18.30;90.20
43320;DHT22;28914;48.722;9.332;2023-07-28T03:43:57;18.30;90.30
43320;DHT22;28914;48.722;9.332;2023-07-28T03:49:17;18.40;90.40
43320;DHT22;28914;48.722;9.332;2023-07-28T03:54:36;18.40;90.40
43320;DHT22;28914;48.722;9.332;2023-07-28T03:59:55;18.50;90.40
43320;DHT22;28914;48.722;9.332;2023-07-28T04:05:15;18.50;90.40
43320;DHT22;28914;48.722;9.332;2023-07-28T04:10:34;18.60;90.40
43320;DHT22;28914;48.722;9.332;2023-07-28T04:15:53;18.70;90.50
43320;DHT22;28914;48.722;9.332;2023-07-28T04:21:12;18.70;90.50
43320;DHT22;28914;48.722;9.332;2023-07-28T04:26:31;18.80;90.60
43320;DHT22;28914;48.722;9.332;2023-07-28T04:31:51;18.80;90.70
43320;DHT22;28914;48.722;9.332;2023-07-28T04:37:10;18.90;90.60
43320;DHT22;28914;48.722;9.332;2023-07-28T04:42:29;19.00;90.80
43320;DHT22;28914;48.722;9.332;2023-07-28T04:47:48;19.00;90.80
43320;DHT22;28914;48.722;9.332;2023-07-28T04:53:07;19.00;90.80
43320;DHT22;28914;48.722;9.332;2023-07-28T04:58:26;19.10;90.80
43320;DHT22;28914;48.722;9.332;2023-07-28T05:03:46;19.20;90.80
43320;DHT22;28914;48.722;9.332;2023-07-28T05:09:05;19.30;90.80
43320;DHT22;28914;48.722;9.332;2023-07-28T05:14:24;19.30;90.80
43320;DHT22;28914;48.722;9.332;2023-07-28T05:19:44;19.40;90.80
43320;DHT22;28914;48.722;9.332;2023-07-28T05:25:03;19.50;90.80
43320;DHT22;28914;48.722;9.332;2023-07-28T05:30:23;19.50;90.70
43320;DHT22;28914;48.722;9.332;2023-07-28T05:35:42;19.60;90.70
43320;DHT22;28914;48.722;9.332;2023-07-28T05:41:03;19.60;90.70
43320;DHT22;28914;48.722;9.332;2023-07-28T05:46:22;19.70;90.80
43320;DHT22;28914;48.722;9.332;2023-07-28T05:51:41;19.80;91.00
43320;DHT22;28914;48.722;9.332;2023-07-28T05:57:01;19.90;91.10
43320;DHT22;28914;48.722;9.332;2023-07-28T06:02:20;19.90;91.20
43320;DHT22;28914;48.722;9.332;2023-07-28T06:07:39;20.10;91.20
43320;DHT22;28914;48.722;9.332;2023-07-28T06:12:58;20.10;91.10
43320;DHT22;28914;48.722;9.332;2023-07-28T06:18:17;20.30;91.20
43320;DHT22;28914;48.722;9.332;2023-07-28T06:23:36;20.40;91.20
43320;DHT22;28914;48.722;9.332;2023-07-28T06:28:56;20.50;91.00
43320;DHT22;28914;48.722;9.332;2023-07-28T06:34:15;20.50;90.90
43320;DHT22;28914;48.722;9.332;2023-07-28T06:39:34;20.70;90.90
43320;DHT22;28914;48.722;9.332;2023-07-28T06:44:53;20.80;90.90
43320;DHT22;28914;48.722;9.332;2023-07-28T06:50:12;20.90;91.00
43320;DHT22;28914;48.722;9.332;2023-07-28T06:55:32;21.00;90.90
43320;DHT22;28914;48.722;9.332;2023-07-28T07:00:51;21.10;90.80
43320;DHT22;28914;48.722;9.332;2023-07-28T07:06:11;21.10;90.50
43320;DHT22;28914;48.722;9.332;2023-07-28T07:11:30;21.20;90.40
43320;DHT22;28914;48.722;9.332;2023-07-28T07:16:49;21.20;90.40
43320;DHT22;28914;48.722;9.332;2023-07-28T07:22:08;21.20;90.60
43320;DHT22;28914;48.722;9.332;2023-07-28T07:27:27;21.40;91.00
43320;DHT22;28914;48.722;9.332;2023-07-28T07:32:47;21.50;90.70
43320;DHT22;28914;48.722;9.332;2023-07-28T07:38:06;21.60;90.60
43320;DHT22;28914;48.722;9.332;2023-07-28T07:43:28;21.60;90.30
43320;DHT22;28914;48.722;9.332;2023-07-28T07:48:47;21.70;90.40
43320;DHT22;28914;48.722;9.332;2023-07-28T07:54:07;21.80;90.30
43320;DHT22;28914;48.722;9.332;2023-07-28T07:59:26;22.00;90.40
43320;DHT22;28914;48.722;9.332;2023-07-28T08:04:47;22.20;90.00
43320;DHT22;28914;48.722;9.332;2023-07-28T08:10:07;22.20;89.50
43320;DHT22;28914;48.722;9.332;2023-07-28T08:15:26;22.30;89.60
43320;DHT22;28914;48.722;9.332;2023-07-28T08:20:45;22.40;89.20
43320;DHT22;28914;48.722;9.332;2023-07-28T08:26:04;22.40;89.20
43320;DHT22;28914;48.722;9.332;2023-07-28T08:31:23;22.50;89.30
43320;DHT22;28914;48.722;9.332;2023-07-28T08:36:43;22.50;88.80
43320;DHT22;28914;48.722;9.332;2023-07-28T08:42:03;22.70;89.20
43320;DHT22;28914;48.722;9.332;2023-07-28T08:47:23;23.00;90.20
43320;DHT22;28914;48.722;9.332;2023-07-28T08:52:43;23.70;90.20
43320;DHT22;28914;48.722;9.332;2023-07-28T08:58:21;24.70;91.00
43320;DHT22;28914;48.722;9.332;2023-07-28T09:03:40;26.00;90.00
43320;DHT22;28914;48.722;9.332;2023-07-28T09:09:00;27.40;87.00
43320;DHT22;28914;48.722;9.332;2023-07-28T09:14:21;28.50;81.50
43320;DHT22;28914;48.722;9.332;2023-07-28T09:19:52;29.80;82.70
43320;DHT22;28914;48.722;9.332;2023-07-28T09:25:13;32.00;78.80
43320;DHT22;28914;48.722;9.332;2023-07-28T09:30:47;34.20;77.70
43320;DHT22;28914;48.722;9.332;2023-07-28T09:36:12;36.70;69.10
43320;DHT22;28914;48.722;9.332;2023-07-28T09:41:34;38.00;60.00
43320;DHT22;28914;48.722;9.332;2023-07-28T09:46:55;37.90;58.10
43320;DHT22;28914;48.722;9.332;2023-07-28T09:52:17;37.50;57.10
43320;DHT22;28914;48.722;9.332;2023-07-28T09:57:41;37.50;58.40
43320;DHT22;28914;48.722;9.332;2023-07-28T10:03:02;38.40;57.50
43320;DHT22;28914;48.722;9.332;2023-07-28T10:08:22;38.80;54.50
43320;DHT22;28914;48.722;9.332;2023-07-28T10:13:43;38.70;53.00
43320;DHT22;28914;48.722;9.332;2023-07-28T10:19:03;38.40;52.40
43320;DHT22;28914;48.722;9.332;2023-07-28T10:25:00;38.10;51.10
43320;DHT22;28914;48.722;9.332;2023-07-28T10:30:19;37.20;50.30
43320;DHT22;28914;48.722;9.332;2023-07-28T10:35:47;36.20;52.40
43320;DHT22;28914;48.722;9.332;2023-07-28T10:41:15;35.50;51.90
43320;DHT22;28914;48.722;9.332;2023-07-28T10:46:35;35.00;52.90
43320;DHT22;28914;48.722;9.332;2023-07-28T10:51:56;34.40;53.10
43320;DHT22;28914;48.722;9.332;2023-07-28T10:57:15;33.80;53.30
43320;DHT22;28914;48.722;9.332;2023-07-28T11:02:38;33.20;53.90
43320;DHT22;28914;48.722;9.332;2023-07-28T11:07:58;32.70;54.40
43320;DHT22;28914;48.722;9.332;2023-07-28T11:13:17;32.30;55.20
43320;DHT22;28914;48.722;9.332;2023-07-28T11:18:37;32.00;55.90
43320;DHT22;28914;48.722;9.332;2023-07-28T11:23:56;32.00;56.10
43320;DHT22;28914;48.722;9.332;2023-07-28T11:29:15;32.00;56.10
43320;DHT22;28914;48.722;9.332;2023-07-28T11:34:36;32.00;54.60
43320;DHT22;28914;48.722;9.332;2023-07-28T11:39:55;32.10;55.60
43320;DHT22;28914;48.722;9.332;2023-07-28T11:45:17;32.20;55.30
43320;DHT22;28914;48.722;9.332;2023-07-28T11:50:41;32.20;55.40
43320;DHT22;28914;48.722;9.332;2023-07-28T11:56:01;32.20;55.10
43320;DHT22;28914;48.722;9.332;2023-07-28T12:01:21;32.10;55.20
43320;DHT22;28914;48.722;9.332;2023-07-28T12:12:21;31.70;54.50
43320;DHT22;28914;48.722;9.332;2023-07-28T12:18:09;31.20;54.60
43320;DHT22;28914;48.722;9.332;2023-07-28T12:23:28;30.60;55.40
43320;DHT22;28914;48.722;9.332;2023-07-28T12:28:48;30.20;56.70
43320;DHT22;28914;48.722;9.332;2023-07-28T12:34:07;29.60;56.90
43320;DHT22;28914;48.722;9.332;2023-07-28T12:39:26;29.20;57.80
43320;DHT22;28914;48.722;9.332;2023-07-28T12:44:46;28.80;58.50
43320;DHT22;28914;48.722;9.332;2023-07-28T12:50:05;28.60;59.20
43320;DHT22;28914;48.722;9.332;2023-07-28T12:55:28;28.50;59.40
43320;DHT22;28914;48.722;9.332;2023-07-28T13:00:47;28.40;59.90
43320;DHT22;28914;48.722;9.332;2023-07-28T13:06:06;28.50;59.90
43320;DHT22;28914;48.722;9.332;2023-07-28T13:11:27;28.50;59.80
43320;DHT22;28914;48.722;9.332;2023-07-28T13:16:46;28.50;59.70
43320;DHT22;28914;48.722;9.332;2023-07-28T13:22:06;28.50;59.20
43320;DHT22;28914;48.722;9.332;2023-07-28T13:27:25;28.50;59.30
43320;DHT22;28914;48.722;9.332;2023-07-28T13:32:44;28.40;59.30
43320;DHT22;28914;48.722;9.332;2023-07-28T13:38:04;28.20;60.00
43320;DHT22;28914;48.722;9.332;2023-07-28T13:43:23;28.00;59.60
43320;DHT22;28914;48.722;9.332;2023-07-28T13:48:42;27.80;60.00
43320;DHT22;28914;48.722;9.332;2023-07-28T13:54:01;27.60;60.90
43320;DHT22;28914;48.722;9.332;2023-07-28T13:59:21;27.40;61.80
43320;DHT22;28914;48.722;9.332;2023-07-28T14:04:40;27.20;62.60
43320;DHT22;28914;48.722;9.332;2023-07-28T14:10:00;27.00;63.50
43320;DHT22;28914;48.722;9.332;2023-07-28T14:15:19;26.80;65.30
43320;DHT22;28914;48.722;9.332;2023-07-28T14:20:39;26.50;65.60
43320;DHT22;28914;48.722;9.332;2023-07-28T14:25:58;26.20;67.00
43320;DHT22;28914;48.722;9.332;2023-07-28T14:31:17;25.80;68.00
43320;DHT22;28914;48.722;9.332;2023-07-28T14:36:36;25.50;69.10
43320;DHT22;28914;48.722;9.332;2023-07-28T14:41:55;25.40;70.10
43320;DHT22;28914;48.722;9.332;2023-07-28T14:47:15;25.40;71.20
43320;DHT22;28914;48.722;9.332;2023-07-28T14:52:34;25.40;71.60
43320;DHT22;28914;48.722;9.332;2023-07-28T14:57:53;25.50;72.10
43320;DHT22;28914;48.722;9.332;2023-07-28T15:03:12;25.60;72.20
43320;DHT22;28914;48.722;9.332;2023-07-28T15:08:33;25.70;72.50
43320;DHT22;28914;48.722;9.332;2023-07-28T15:13:52;25.80;72.20
43320;DHT22;28914;48.722;9.332;2023-07-28T15:19:11;25.80;72.20
43320;DHT22;28914;48.722;9.332;2023-07-28T15:24:30;25.80;72.90
43320;DHT22;28914;48.722;9.332;2023-07-28T15:29:50;25.80;73.20
43320;DHT22;28914;48.722;9.332;2023-07-28T15:35:09;25.90;73.50
43320;DHT22;28914;48.722;9.332;2023-07-28T15:40:29;26.00;73.80
43320;DHT22;28914;48.722;9.332;2023-07-28T15:45:49;26.20;73.90
43320;DHT22;28914;48.722;9.332;2023-07-28T15:51:10;26.20;73.70
43320;DHT22;28914;48.722;9.332;2023-07-28T15:56:29;26.30;73.30
43320;DHT22;28914;48.722;9.332;2023-07-28T16:01:49;26.20;73.00
43320;DHT22;28914;48.722;9.332;2023-07-28T16:07:08;26.20;73.30
43320;DHT22;28914;48.722;9.332;2023-07-28T16:12:27;26.20;73.70
43320;DHT22;28914;48.722;9.332;2023-07-28T16:17:46;26.10;73.80
43320;DHT22;28914;48.722;9.332;2023-07-28T16:23:06;26.00;73.90
43320;DHT22;28914;48.722;9.332;2023-07-28T16:28:25;26.00;74.50
43320;DHT22;28914;48.722;9.332;2023-07-28T16:33:44;25.90;75.10
43320;DHT22;28914;48.722;9.332;2023-07-28T16:39:03;25.80;74.80
43320;DHT22;28914;48.722;9.332;2023-07-28T16:44:22;25.80;75.20
43320;DHT22;28914;48.722;9.332;2023-07-28T16:49:42;25.70;75.40
43320;DHT22;28914;48.722;9.332;2023-07-28T16:55:02;25.70;76.30
43320;DHT22;28914;48.722;9.332;2023-07-28T17:00:21;25.60;75.90
43320;DHT22;28914;48.722;9.332;2023-07-28T17:05:40;25.50;75.80
43320;DHT22;28914;48.722;9.332;2023-07-28T17:11:00;25.40;76.00
43320;DHT22;28914;48.722;9.332;2023-07-28T17:16:20;25.30;76.20
43320;DHT22;28914;48.722;9.332;2023-07-28T17:21:41;25.20;76.30
43320;DHT22;28914;48.722;9.332;2023-07-28T17:27:00;25.10;76.60
43320;DHT22;28914;48.722;9.332;2023-07-28T17:32:19;25.00;77.10
43320;DHT22;28914;48.722;9.332;2023-07-28T17:37:39;25.00;78.00
43320;DHT22;28914;48.722;9.332;2023-07-28T17:42:58;25.00;78.20
43320;DHT22;28914;48.722;9.332;2023-07-28T17:48:17;24.90;78.00
43320;DHT22;28914;48.722;9.332;2023-07-28T17:53:36;24.80;78.10
43320;DHT22;28914;48.722;9.332;2023-07-28T17:58:55;24.80;78.30
43320;DHT22;28914;48.722;9.332;2023-07-28T18:04:14;24.80;78.60
43320;DHT22;28914;48.722;9.332;2023-07-28T18:09:34;24.70;79.30
43320;DHT22;28914;48.722;9.332;2023-07-28T18:14:53;24.60;78.80
43320;DHT22;28914;48.722;9.332;2023-07-28T18:20:12;24.60;78.80
43320;DHT22;28914;48.722;9.332;2023-07-28T18:25:32;24.50;79.10
43320;DHT22;28914;48.722;9.332;2023-07-28T18:30:51;24.50;79.80
43320;DHT22;28914;48.722;9.332;2023-07-28T18:36:11;24.40;79.60
43320;DHT22;28914;48.722;9.332;2023-07-28T18:41:30;24.30;79.80
43320;DHT22;28914;48.722;9.332;2023-07-28T18:46:49;24.30;79.80
43320;DHT22;28914;48.722;9.332;2023-07-28T18:52:09;24.20;79.80
43320;DHT22;28914;48.722;9.332;2023-07-28T18:57:27;24.10;79.80
43320;DHT22;28914;48.722;9.332;2023-07-28T19:02:47;24.00;80.00
43320;DHT22;28914;48.722;9.332;2023-07-28T19:08:13;23.90;80.10
43320;DHT22;28914;48.722;9.332;2023-07-28T19:13:33;23.80;80.10
43320;DHT22;28914;48.722;9.332;2023-07-28T19:18:52;23.70;80.10
43320;DHT22;28914;48.722;9.332;2023-07-28T19:24:12;23.50;80.20
43320;DHT22;28914;48.722;9.332;2023-07-28T19:29:30;23.40;80.60
43320;DHT22;28914;48.722;9.332;2023-07-28T19:34:50;23.20;80.90
43320;DHT22;28914;48.722;9.332;2023-07-28T19:40:09;23.20;81.50
43320;DHT22;28914;48.722;9.332;2023-07-28T19:45:29;23.00;81.60
43320;DHT22;28914;48.722;9.332;2023-07-28T19:50:49;22.90;81.80
43320;DHT22;28914;48.722;9.332;2023-07-28T19:56:09;22.80;82.10
43320;DHT22;28914;48.722;9.332;2023-07-28T20:01:28;22.80;82.30
43320;DHT22;28914;48.722;9.332;2023-07-28T20:06:49;22.70;82.40
43320;DHT22;28914;48.722;9.332;2023-07-28T20:12:08;22.60;83.10
43320;DHT22;28914;48.722;9.332;2023-07-28T20:17:27;22.50;83.10
43320;DHT22;28914;48.722;9.332;2023-07-28T20:22:46;22.40;83.00
43320;DHT22;28914;48.722;9.332;2023-07-28T20:28:07;22.40;83.60
43320;DHT22;28914;48.722;9.332;2023-07-28T20:33:26;22.20;83.70
43320;DHT22;28914;48.722;9.332;2023-07-28T20:38:46;22.10;84.00
43320;DHT22;28914;48.722;9.332;2023-07-28T20:44:05;22.00;84.00
43320;DHT22;28914;48.722;9.332;2023-07-28T20:49:24;21.80;84.60
43320;DHT22;28914;48.722;9.332;2023-07-28T20:54:44;21.70;84.60
43320;DHT22;28914;48.722;9.332;2023-07-28T21:00:07;21.60;85.60
43320;DHT22;28914;48.722;9.332;2023-07-28T21:05:26;21.50;85.10
43320;DHT22;28914;48.722;9.332;2023-07-28T21:10:46;21.50;85.10
43320;DHT22;28914;48.722;9.332;2023-07-28T21:16:05;21.40;85.50
43320;DHT22;28914;48.722;9.332;2023-07-28T21:21:24;21.50;85.70
43320;DHT22;28914;48.722;9.332;2023-07-28T21:26:43;21.40;85.60
43320;DHT22;28914;48.722;9.332;2023-07-28T21:32:03;21.40;85.90
43320;DHT22;28914;48.722;9.332;2023-07-28T21:37:22;21.30;85.50
43320;DHT22;28914;48.722;9.332;2023-07-28T21:42:41;21.30;85.60
43320;DHT22;28914;48.722;9.332;2023-07-28T21:48:00;21.20;85.70
43320;DHT22;28914;48.722;9.332;2023-07-28T21:53:19;21.10;85.50
43320;DHT22;28914;48.722;9.332;2023-07-28T21:58:39;21.00;85.50
43320;DHT22;28914;48.722;9.332;2023-07-28T22:03:58;20.90;86.40
43320;DHT22;28914;48.722;9.332;2023-07-28T22:09:17;20.80;85.70
43320;DHT22;28914;48.722;9.332;2023-07-28T22:14:36;20.80;85.80
43320;DHT22;28914;48.722;9.332;2023-07-28T22:19:56;20.70;86.30
43320;DHT22;28914;48.722;9.332;2023-07-28T22:25:15;20.60;86.40
43320;DHT22;28914;48.722;9.332;2023-07-28T22:30:34;20.60;86.50
43320;DHT22;28914;48.722;9.332;2023-07-28T22:35:53;20.50;86.60
43320;DHT22;28914;48.722;9.332;2023-07-28T22:41:13;20.40;86.80
43320;DHT22;28914;48.722;9.332;2023-07-28T22:46:32;20.40;87.00
43320;DHT22;28914;48.722;9.332;2023-07-28T22:51:52;20.30;88.30
43320;DHT22;28914;48.722;9.332;2023-07-28T22:57:11;20.20;88.10
43320;DHT22;28914;48.722;9.332;2023-07-28T23:02:30;20.10;88.10
43320;DHT22;28914;48.722;9.332;2023-07-28T23:07:50;20.10;88.30
43320;DHT22;28914;48.722;9.332;2023-07-28T23:13:09;20.10;88.80
43320;DHT22;28914;48.722;9.332;2023-07-28T23:18:28;20.10;89.20
43320;DHT22;28914;48.722;9.332;2023-07-28T23:23:47;20.20;89.50
43320;DHT22;28914;48.722;9.332;2023-07-28T23:29:06;20.20;90.20
43320;DHT22;28914;48.722;9.332;2023-07-28T23:34:25;20.20;90.10
43320;DHT22;28914;48.722;9.332;2023-07-28T23:39:45;20.30;90.00
43320;DHT22;28914;48.722;9.332;2023-07-28T23:45:06;20.30;90.00
43320;DHT22;28914;48.722;9.332;2023-07-28T23:50:25;20.30;89.70
43320;DHT22;28914;48.722;9.332;2023-07-28T23:55:45;20.30;89.70
